Iberville, Canada
Current Conditions -  °F | °C
As of 11:19 PM on Thursday 18 Dec 2014 (Local Time) from CYHU Reporting Station
Overcast Overcast  
Wind Chill: -5°   Ceiling: 2300
Heat Index: -1°   Visibility: 9mi
Dew Point: -6°   Wind: 8mph
Humidity: 69%   Direction: 310°NW
Pressure: 29.94"   Gusts: NA
Location:  45.32°N, 73.23°W
Report Text: CYHU 190419Z AUTO 31007KT 9SM OVC023 M01/M06 A2994 RMK SLP139
Loading
Personal Weather Stations






























Interactive Weather Map New forecast layout! Learn more

10-Day Weather Forecast

Advertisements
Track Severe Weather on mobile